Time;durP1;ratioP1;P1;durP2;ratioP2;P2;SDS_P1;SDS_P2;PMS_P1;PMS_P2;Temp;Humidity;BMP_temperature;BMP_pressure;BME280_temperature;BME280_humidity;BME280_pressure;Samples;Min_cycle;Max_cycle;Signal;HPM_P1;HPM_P2
2023/02/23 00:00:43;;;;;;;;;52.75;40.00;;;;;;;;5079615;28;51699;-54
2023/02/23 00:03:28;;;;;;;;;54.75;40.00;;;;;;;;5079487;28;51133;-55
2023/02/23 00:06:12;;;;;;;;;51.25;38.25;;;;;;;;5079611;28;51092;-58
2023/02/23 00:08:59;;;;;;;;;61.00;41.25;;;;;;;;5079156;28;51514;-54
2023/02/23 00:11:44;;;;;;;;;57.00;40.25;;;;;;;;5079478;28;51117;-57
2023/02/23 00:14:29;;;;;;;;;56.25;40.00;;;;;;;;5079465;28;51544;-57
2023/02/23 00:17:16;;;;;;;;;50.50;39.00;;;;;;;;5079402;28;51106;-54
2023/02/23 00:20:06;;;;;;;;;54.00;40.25;;;;;;;;5079107;28;51344;-54
2023/02/23 00:22:52;;;;;;;;;57.25;41.25;;;;;;;;5079136;28;51527;-54
2023/02/23 00:25:37;;;;;;;;;48.75;38.75;;;;;;;;5079530;28;51237;-57
2023/02/23 00:28:21;;;;;;;;;57.00;38.25;;;;;;;;5079111;28;51161;-56
2023/02/23 00:31:06;;;;;;;;;52.00;39.50;;;;;;;;5079419;28;51195;-54
2023/02/23 00:33:53;;;;;;;;;58.25;41.50;;;;;;;;5078868;28;51356;-56
2023/02/23 00:36:37;;;;;;;;;55.75;39.00;;;;;;;;5082129;27;51123;-54
2023/02/23 00:39:25;;;;;;;;;48.50;39.25;;;;;;;;5082986;27;51027;-54
2023/02/23 00:42:10;;;;;;;;;53.00;39.00;;;;;;;;5082883;27;51188;-55
2023/02/23 00:44:54;;;;;;;;;59.25;40.25;;;;;;;;5082686;27;51166;-55
2023/02/23 00:47:39;;;;;;;;;52.25;40.25;;;;;;;;5077598;27;51278;-58
2023/02/23 00:50:23;;;;;;;;;53.75;40.25;;;;;;;;5082593;27;51616;-59
2023/02/23 00:53:08;;;;;;;;;56.25;41.75;;;;;;;;5082306;27;51251;-57
2023/02/23 00:55:53;;;;;;;;;59.50;40.00;;;;;;;;5082974;27;51201;-50
2023/02/23 00:58:37;;;;;;;;;53.75;41.00;;;;;;;;5082511;27;51016;-56
2023/02/23 01:01:21;;;;;;;;;48.50;37.25;;;;;;;;5082457;27;51079;-54
2023/02/23 01:04:06;;;;;;;;;54.75;41.25;;;;;;;;5082259;27;51070;-59
2023/02/23 01:06:51;;;;;;;;;52.25;38.00;;;;;;;;5082765;27;51074;-55
2023/02/23 01:09:36;;;;;;;;;52.00;36.75;;;;;;;;5082293;27;51089;-58
2023/02/23 01:12:21;;;;;;;;;48.25;38.00;;;;;;;;5080220;27;52430;-55
2023/02/23 01:15:07;;;;;;;;;57.00;39.50;;;;;;;;5080207;27;51510;-58
2023/02/23 01:17:51;;;;;;;;;52.50;39.50;;;;;;;;5082160;27;51135;-56
2023/02/23 01:20:36;;;;;;;;;57.75;40.00;;;;;;;;5082544;27;51092;-58
2023/02/23 01:23:21;;;;;;;;;54.50;39.75;;;;;;;;5095402;27;51462;-58
2023/02/23 01:26:12;;;;;;;;;58.75;42.50;;;;;;;;5102618;27;51198;-53
2023/02/23 01:28:57;;;;;;;;;55.25;41.00;;;;;;;;5102620;27;51069;-59
2023/02/23 01:31:43;;;;;;;;;55.25;39.50;;;;;;;;5102975;27;51075;-57
2023/02/23 01:34:28;;;;;;;;;52.75;38.75;;;;;;;;5102046;27;51146;-53
2023/02/23 01:37:12;;;;;;;;;53.00;40.25;;;;;;;;5102340;27;51118;-60
2023/02/23 01:39:57;;;;;;;;;56.00;39.25;;;;;;;;5102477;27;51562;-54
2023/02/23 01:42:42;;;;;;;;;53.75;39.75;;;;;;;;5059755;27;51056;-56
2023/02/23 01:45:33;;;;;;;;;55.25;40.00;;;;;;;;5081807;27;51106;-54
2023/02/23 01:48:20;;;;;;;;;57.50;38.50;;;;;;;;5080726;27;51517;-55
2023/02/23 01:51:12;;;;;;;;;58.00;41.00;;;;;;;;5081642;27;51041;-52
2023/02/23 01:54:03;;;;;;;;;61.50;42.00;;;;;;;;5077253;27;51026;-57
2023/02/23 01:56:56;;;;;;;;;53.00;39.25;;;;;;;;5076470;27;51154;-57
2023/02/23 01:59:42;;;;;;;;;51.75;40.00;;;;;;;;5081240;27;51031;-57
2023/02/23 02:02:32;;;;;;;;;58.25;40.50;;;;;;;;5081230;27;51190;-55
2023/02/23 02:05:17;;;;;;;;;54.50;40.25;;;;;;;;5081294;27;51093;-55
2023/02/23 02:08:02;;;;;;;;;56.75;39.75;;;;;;;;5081138;27;51094;-57
2023/02/23 02:10:46;;;;;;;;;53.50;40.00;;;;;;;;5081710;27;51153;-54
2023/02/23 02:13:30;;;;;;;;;56.75;40.25;;;;;;;;5080787;27;51114;-55
2023/02/23 02:16:37;;;;;;;;;40.50;27.25;;;;;;;;5081280;27;51130;-54
2023/02/23 02:19:50;;;;;;;;;54.00;38.50;;;;;;;;5043457;27;51185;-59
2023/02/23 02:22:53;;;;;;;;;58.75;42.25;;;;;;;;5081115;27;51204;-56
2023/02/23 02:25:43;;;;;;;;;54.00;39.75;;;;;;;;5080739;27;51513;-58
2023/02/23 02:28:28;;;;;;;;;54.00;38.50;;;;;;;;5080512;27;51186;-57
2023/02/23 02:31:14;;;;;;;;;57.00;39.25;;;;;;;;5081012;27;51572;-51
2023/02/23 02:33:59;;;;;;;;;54.50;38.50;;;;;;;;5080699;27;51181;-55
2023/02/23 02:36:43;;;;;;;;;55.00;39.50;;;;;;;;5080865;27;51119;-56
2023/02/23 02:39:36;;;;;;;;;56.00;42.00;;;;;;;;5080336;27;51367;-55
2023/02/23 02:42:29;;;;;;;;;52.00;39.75;;;;;;;;5080591;27;51163;-55
2023/02/23 02:45:29;;;;;;;;;60.25;41.75;;;;;;;;5080315;27;51028;-56
2023/02/23 02:48:37;;;;;;;;;55.00;38.50;;;;;;;;5080861;27;51072;-57
2023/02/23 02:51:29;;;;;;;;;57.75;41.00;;;;;;;;5080293;27;50994;-54
2023/02/23 02:54:22;;;;;;;;;57.75;41.50;;;;;;;;5076805;27;51078;-56
2023/02/23 02:57:07;;;;;;;;;52.50;39.50;;;;;;;;5075743;27;51507;-60
2023/02/23 04:17:54;;;;;;;;;51.00;38.00;;;;;;;;5077377;27;51283;-58
2023/02/23 04:20:38;;;;;;;;;55.50;39.25;;;;;;;;5083471;27;51100;-53
2023/02/23 04:23:23;;;;;;;;;53.50;39.00;;;;;;;;5083347;27;51159;-52
2023/02/23 04:26:07;;;;;;;;;55.00;41.00;;;;;;;;5083467;27;51364;-55
2023/02/23 04:28:52;;;;;;;;;39.75;22.50;;;;;;;;5082930;27;51524;-55
2023/02/23 04:31:36;;;;;;;;;60.75;41.75;;;;;;;;5083138;27;51112;-55
2023/02/23 04:34:21;;;;;;;;;55.25;41.25;;;;;;;;5082915;27;51085;-56
2023/02/23 04:37:05;;;;;;;;;55.75;38.25;;;;;;;;5083413;27;51116;-57
2023/02/23 04:39:49;;;;;;;;;57.00;39.00;;;;;;;;5082646;27;51591;-52
2023/02/23 04:42:34;;;;;;;;;56.75;39.75;;;;;;;;5083090;27;51054;-56
2023/02/23 04:45:19;;;;;;;;;54.25;39.75;;;;;;;;5083176;27;51068;-53
2023/02/23 04:48:03;;;;;;;;;54.50;38.25;;;;;;;;5082579;27;51173;-56
2023/02/23 04:50:50;;;;;;;;;51.75;41.25;;;;;;;;5083177;27;51090;-55
2023/02/23 04:53:35;;;;;;;;;55.50;39.50;;;;;;;;5082544;27;51174;-55
2023/02/23 04:56:19;;;;;;;;;60.25;41.00;;;;;;;;5082760;27;51135;-54
2023/02/23 04:59:03;;;;;;;;;55.00;40.00;;;;;;;;5082374;27;51129;-55
2023/02/23 05:01:48;;;;;;;;;50.75;38.75;;;;;;;;5082930;27;51078;-56
2023/02/23 05:04:34;;;;;;;;;52.75;38.75;;;;;;;;5077687;27;51360;-56
2023/02/23 05:07:18;;;;;;;;;54.50;40.25;;;;;;;;5082486;27;51143;-54
2023/02/23 05:10:04;;;;;;;;;56.50;38.25;;;;;;;;5082384;27;51730;-53
2023/02/23 05:12:48;;;;;;;;;57.00;41.00;;;;;;;;5082196;27;51207;-55
2023/02/23 05:15:32;;;;;;;;;58.75;41.50;;;;;;;;5082847;27;51125;-55
2023/02/23 05:18:17;;;;;;;;;56.75;43.50;;;;;;;;5082007;27;51122;-59
2023/02/23 05:21:02;;;;;;;;;44.75;34.50;;;;;;;;5082077;27;51684;-57
2023/02/23 05:23:47;;;;;;;;;58.50;39.00;;;;;;;;5098406;27;51039;-57
2023/02/23 05:26:31;;;;;;;;;42.25;27.00;;;;;;;;5102886;27;50999;-55
2023/02/23 05:29:16;;;;;;;;;58.75;42.00;;;;;;;;5102260;27;51498;-59
2023/02/23 05:32:00;;;;;;;;;52.25;40.50;;;;;;;;5102513;27;51223;-55
2023/02/23 05:34:45;;;;;;;;;51.50;37.50;;;;;;;;5102542;27;51594;-59
2023/02/23 05:37:29;;;;;;;;;59.75;40.75;;;;;;;;5102436;27;51171;-55
2023/02/23 05:40:14;;;;;;;;;57.25;37.25;;;;;;;;5091754;27;51133;-56
2023/02/23 05:42:59;;;;;;;;;49.50;38.00;;;;;;;;5081678;27;51150;-58
2023/02/23 05:45:43;;;;;;;;;54.50;39.25;;;;;;;;5082119;27;51748;-57
2023/02/23 05:48:28;;;;;;;;;55.50;40.50;;;;;;;;5081782;27;51096;-55
2023/02/23 05:51:13;;;;;;;;;54.50;40.75;;;;;;;;5081722;27;51027;-56
2023/02/23 05:53:57;;;;;;;;;62.75;41.75;;;;;;;;5081471;27;51540;-55
2023/02/23 05:56:42;;;;;;;;;61.25;42.75;;;;;;;;5081519;27;51047;-57
2023/02/23 05:59:26;;;;;;;;;55.50;38.25;;;;;;;;5081601;27;51748;-60
2023/02/23 06:02:11;;;;;;;;;58.50;42.25;;;;;;;;5081158;27;51173;-58
2023/02/23 06:04:55;;;;;;;;;54.00;41.50;;;;;;;;5081677;27;51184;-56
2023/02/23 06:07:50;;;;;;;;;59.25;44.50;;;;;;;;5038284;28;51285;-56
2023/02/23 06:10:34;;;;;;;;;54.25;40.25;;;;;;;;5038524;28;51747;-57
2023/02/23 06:13:20;;;;;;;;;58.00;41.75;;;;;;;;5038069;28;51198;-58
2023/02/23 06:16:04;;;;;;;;;58.25;43.00;;;;;;;;5038391;28;51063;-55
2023/02/23 06:18:48;;;;;;;;;58.25;42.00;;;;;;;;5038153;28;51534;-54
2023/02/23 06:21:32;;;;;;;;;57.25;42.25;;;;;;;;5038418;28;51096;-54
2023/02/23 06:24:18;;;;;;;;;56.50;40.50;;;;;;;;5037957;28;51034;-52
2023/02/23 06:27:02;;;;;;;;;55.25;39.25;;;;;;;;5038084;28;51214;-58
2023/02/23 06:29:46;;;;;;;;;59.00;43.50;;;;;;;;5038465;28;51263;-58
2023/02/23 06:32:29;;;;;;;;;61.25;40.75;;;;;;;;5037953;28;51437;-59
2023/02/23 06:35:14;;;;;;;;;33.75;18.75;;;;;;;;5038618;28;51065;-56
2023/02/23 06:37:58;;;;;;;;;63.00;44.75;;;;;;;;5057764;28;51149;-56
2023/02/23 06:40:43;;;;;;;;;60.25;46.50;;;;;;;;5032651;28;51156;-57
2023/02/23 06:43:28;;;;;;;;;66.25;47.25;;;;;;;;5042719;27;51491;-57
2023/02/23 06:46:12;;;;;;;;;67.25;51.00;;;;;;;;5080501;27;51172;-60
2023/02/23 06:48:58;;;;;;;;;72.00;50.50;;;;;;;;5080594;27;51135;-59
2023/02/23 06:51:42;;;;;;;;;70.25;49.50;;;;;;;;5080485;27;51529;-45
2023/02/23 06:54:27;;;;;;;;;69.75;49.50;;;;;;;;5080720;27;51156;-44
2023/02/23 06:57:11;;;;;;;;;60.75;42.00;;;;;;;;5079939;27;51234;-45
2023/02/23 06:59:56;;;;;;;;;66.50;51.00;;;;;;;;5096724;27;51555;-42
2023/02/23 07:02:44;;;;;;;;;66.00;51.25;;;;;;;;5100669;27;51009;-42
2023/02/23 07:05:28;;;;;;;;;66.75;48.00;;;;;;;;5100874;27;51160;-45
2023/02/23 07:08:13;;;;;;;;;63.25;47.00;;;;;;;;5100356;27;50999;-44
2023/02/23 07:13:53;;;;;;;;;65.75;46.75;;;;;;;;5057375;28;51113;-43
2023/02/23 07:16:38;;;;;;;;;69.25;50.25;;;;;;;;5057388;28;51104;-44
2023/02/23 07:19:23;;;;;;;;;62.75;48.00;;;;;;;;5057469;28;51119;-42
2023/02/23 07:22:07;;;;;;;;;66.25;48.75;;;;;;;;5057290;28;51407;-43
2023/02/23 07:24:51;;;;;;;;;64.50;50.25;;;;;;;;5057566;28;51207;-44
2023/02/23 07:27:35;;;;;;;;;73.25;55.75;;;;;;;;5057120;28;51174;-45
2023/02/23 07:30:23;;;;;;;;;68.00;51.00;;;;;;;;5057338;28;51179;-44
2023/02/23 07:33:07;;;;;;;;;68.50;50.25;;;;;;;;5057164;28;51036;-42
2023/02/23 07:35:51;;;;;;;;;72.75;51.00;;;;;;;;5057208;28;51361;-41
2023/02/23 07:38:35;;;;;;;;;69.25;50.75;;;;;;;;5057261;28;51796;-44
2023/02/23 07:41:20;;;;;;;;;72.00;51.00;;;;;;;;5056764;28;51163;-43
2023/02/23 07:44:04;;;;;;;;;70.50;49.50;;;;;;;;5057664;28;51183;-43
2023/02/23 07:46:49;;;;;;;;;67.00;48.75;;;;;;;;5056731;28;51415;-41
2023/02/23 07:49:33;;;;;;;;;65.50;48.25;;;;;;;;5046365;28;51725;-42
2023/02/23 07:52:18;;;;;;;;;66.50;49.75;;;;;;;;5074173;27;51169;-44
2023/02/23 07:55:02;;;;;;;;;68.00;50.00;;;;;;;;5073463;27;51086;-45
2023/02/23 07:57:46;;;;;;;;;69.00;48.25;;;;;;;;5091950;27;51044;-42
2023/02/23 08:00:32;;;;;;;;;66.25;47.00;;;;;;;;5093037;27;51158;-43
2023/02/23 08:03:16;;;;;;;;;62.50;46.00;;;;;;;;5084553;27;51096;-45
2023/02/23 08:06:00;;;;;;;;;61.25;44.50;;;;;;;;5081229;27;51110;-45
2023/02/23 08:08:45;;;;;;;;;58.25;43.75;;;;;;;;5084534;27;51143;-42
2023/02/23 08:11:29;;;;;;;;;67.00;45.75;;;;;;;;5090461;27;51075;-44
2023/02/23 08:14:14;;;;;;;;;61.25;45.00;;;;;;;;5096584;27;51752;-44
2023/02/23 08:17:00;;;;;;;;;57.25;35.50;;;;;;;;5069445;27;51411;-43
2023/02/23 08:19:44;;;;;;;;;60.25;43.25;;;;;;;;5079170;28;51620;-42
2023/02/23 08:22:29;;;;;;;;;58.25;42.00;;;;;;;;5078531;28;51442;-43
2023/02/23 08:25:13;;;;;;;;;60.50;43.00;;;;;;;;5074308;28;51269;-43
2023/02/23 08:28:03;;;;;;;;;63.25;42.75;;;;;;;;5064960;28;51654;-47
2023/02/23 08:30:47;;;;;;;;;54.00;40.50;;;;;;;;5074870;28;51237;-42
2023/02/23 08:33:31;;;;;;;;;53.50;34.25;;;;;;;;5079134;28;51181;-45
2023/02/23 08:36:15;;;;;;;;;61.00;42.50;;;;;;;;5072230;28;51118;-43
2023/02/23 08:39:01;;;;;;;;;56.00;41.75;;;;;;;;5068507;28;51125;-43
2023/02/23 08:41:45;;;;;;;;;57.00;42.50;;;;;;;;5073660;28;51295;-45
2023/02/23 08:44:30;;;;;;;;;63.75;41.00;;;;;;;;5079336;28;51149;-45
2023/02/23 08:47:15;;;;;;;;;57.50;39.50;;;;;;;;5074846;28;51148;-46
2023/02/23 08:50:00;;;;;;;;;58.25;41.50;;;;;;;;5070595;28;51050;-44
2023/02/23 08:52:44;;;;;;;;;55.25;36.75;;;;;;;;5075660;28;51143;-45
2023/02/23 08:55:29;;;;;;;;;57.75;39.00;;;;;;;;5075573;28;51134;-43
2023/02/23 08:58:13;;;;;;;;;50.50;35.50;;;;;;;;5072527;27;51047;-44
2023/02/23 09:00:57;;;;;;;;;59.00;38.75;;;;;;;;5082578;27;51421;-45
2023/02/23 09:03:42;;;;;;;;;57.00;40.25;;;;;;;;5080483;27;51575;-43
2023/02/23 09:06:27;;;;;;;;;53.00;38.25;;;;;;;;5082548;27;51098;-44
2023/02/23 09:09:11;;;;;;;;;58.75;40.00;;;;;;;;5078011;27;51136;-43
2023/02/23 09:11:55;;;;;;;;;59.50;39.50;;;;;;;;5081991;27;51144;-46
2023/02/23 09:14:40;;;;;;;;;54.00;38.75;;;;;;;;5082547;27;51132;-42
2023/02/23 09:17:25;;;;;;;;;50.50;39.25;;;;;;;;5082379;27;51734;-45
2023/02/23 09:20:12;;;;;;;;;53.75;36.00;;;;;;;;5081807;27;51109;-44
2023/02/23 09:22:58;;;;;;;;;65.50;40.50;;;;;;;;5082050;27;51068;-41
2023/02/23 09:25:43;;;;;;;;;55.75;38.75;;;;;;;;5082317;27;51128;-43
2023/02/23 09:28:29;;;;;;;;;55.75;40.50;;;;;;;;5082131;27;51690;-43
2023/02/23 09:31:14;;;;;;;;;52.75;39.50;;;;;;;;5082184;27;51227;-44
2023/02/23 09:34:01;;;;;;;;;55.50;38.75;;;;;;;;5082404;27;51089;-44
2023/02/23 09:36:46;;;;;;;;;54.25;37.25;;;;;;;;5081854;27;51378;-44
2023/02/23 09:39:30;;;;;;;;;55.25;36.75;;;;;;;;5081741;27;51000;-46
2023/02/23 09:42:24;;;;;;;;;54.00;38.50;;;;;;;;5082132;27;51673;-43
2023/02/23 09:45:17;;;;;;;;;56.00;38.75;;;;;;;;5081575;27;51138;-43
2023/02/23 09:48:08;;;;;;;;;59.00;40.25;;;;;;;;5081905;27;51165;-44
2023/02/23 09:50:54;;;;;;;;;57.75;36.50;;;;;;;;5075324;27;51071;-45
2023/02/23 09:53:43;;;;;;;;;55.75;37.75;;;;;;;;5081610;27;51703;-43
2023/02/23 09:56:34;;;;;;;;;53.75;39.25;;;;;;;;5077131;27;51174;-45
2023/02/23 09:59:20;;;;;;;;;54.50;38.75;;;;;;;;5081954;27;51041;-44
2023/02/23 10:02:13;;;;;;;;;48.50;37.50;;;;;;;;5081378;27;51323;-42
2023/02/23 10:05:10;;;;;;;;;47.75;35.75;;;;;;;;5078966;27;51207;-46
2023/02/23 10:07:57;;;;;;;;;56.50;37.00;;;;;;;;5071646;27;51106;-44
2023/02/23 10:10:41;;;;;;;;;45.25;33.25;;;;;;;;5069328;27;51151;-46
2023/02/23 10:13:44;;;;;;;;;53.00;37.75;;;;;;;;5080103;27;51227;-43
2023/02/23 10:16:41;;;;;;;;;47.25;36.75;;;;;;;;5073547;27;51098;-46
2023/02/23 10:19:50;;;;;;;;;54.25;39.25;;;;;;;;5070305;27;51127;-43
2023/02/23 10:22:34;;;;;;;;;53.00;36.50;;;;;;;;5068954;27;51485;-43
2023/02/23 10:25:21;;;;;;;;;56.50;37.50;;;;;;;;5081599;27;51145;-46
2023/02/23 10:28:11;;;;;;;;;52.25;37.00;;;;;;;;5072086;27;51988;-41
2023/02/23 10:30:55;;;;;;;;;54.00;36.75;;;;;;;;5072819;27;51216;-43
2023/02/23 10:33:40;;;;;;;;;54.50;37.00;;;;;;;;5074552;27;51212;-44
2023/02/23 10:36:36;;;;;;;;;47.25;36.00;;;;;;;;5075347;27;51342;-43
2023/02/23 10:39:20;;;;;;;;;52.50;36.75;;;;;;;;5074063;27;51617;-43
2023/02/23 10:42:06;;;;;;;;;53.50;37.75;;;;;;;;5076149;27;51130;-45
2023/02/23 10:44:51;;;;;;;;;53.75;36.50;;;;;;;;5075661;27;51848;-42
2023/02/23 10:47:36;;;;;;;;;51.75;36.50;;;;;;;;5063908;27;51217;-44
2023/02/23 10:50:21;;;;;;;;;48.50;37.00;;;;;;;;5065497;27;51092;-42
2023/02/23 10:53:06;;;;;;;;;51.00;38.00;;;;;;;;5071895;27;51410;-42
2023/02/23 10:56:01;;;;;;;;;54.50;39.75;;;;;;;;5075185;27;51135;-46
2023/02/23 10:58:45;;;;;;;;;49.00;36.00;;;;;;;;5072041;27;51599;-42
2023/02/23 11:01:49;;;;;;;;;50.00;35.50;;;;;;;;5010899;28;51214;-42
2023/02/23 11:04:34;;;;;;;;;51.50;35.00;;;;;;;;5010448;28;51268;-45
2023/02/23 11:07:21;;;;;;;;;54.50;36.50;;;;;;;;5010938;28;51087;-44
2023/02/23 11:10:25;;;;;;;;;52.25;36.00;;;;;;;;5006452;28;51632;-45
2023/02/23 11:13:20;;;;;;;;;46.50;33.75;;;;;;;;5025149;28;51202;-44
2023/02/23 11:16:15;;;;;;;;;51.75;38.25;;;;;;;;5032404;28;51081;-42
2023/02/23 11:19:00;;;;;;;;;50.50;37.50;;;;;;;;5009496;28;51133;-43
2023/02/23 11:21:49;;;;;;;;;51.25;35.00;;;;;;;;5013430;28;51205;-43
2023/02/23 11:24:40;;;;;;;;;52.75;33.50;;;;;;;;4997298;28;51644;-44
2023/02/23 11:27:26;;;;;;;;;55.50;37.25;;;;;;;;4991893;28;51095;-45
2023/02/23 11:30:11;;;;;;;;;49.25;35.75;;;;;;;;4986537;28;51160;-45
2023/02/23 11:32:57;;;;;;;;;47.50;36.00;;;;;;;;5031574;28;51179;-42
2023/02/23 11:35:42;;;;;;;;;52.00;37.75;;;;;;;;5055620;28;51611;-44
2023/02/23 11:38:28;;;;;;;;;54.00;37.50;;;;;;;;5052390;28;51058;-44
2023/02/23 11:41:20;;;;;;;;;54.25;38.50;;;;;;;;5058660;28;51046;-43
2023/02/23 11:44:04;;;;;;;;;53.00;38.25;;;;;;;;5045427;28;51500;-45
2023/02/23 11:46:49;;;;;;;;;46.75;35.25;;;;;;;;5046643;28;51116;-44
2023/02/23 11:49:34;;;;;;;;;42.50;31.25;;;;;;;;5051233;28;51644;-45
2023/02/23 11:52:21;;;;;;;;;53.75;37.00;;;;;;;;5053880;28;51081;-44
2023/02/23 11:55:06;;;;;;;;;47.25;37.50;;;;;;;;5059070;28;51580;-43
2023/02/23 11:57:52;;;;;;;;;37.50;23.00;;;;;;;;5053848;28;51054;-41
2023/02/23 12:00:36;;;;;;;;;46.25;34.00;;;;;;;;5053311;28;51957;-45
2023/02/23 12:03:22;;;;;;;;;54.50;35.50;;;;;;;;5056628;28;51060;-42
2023/02/23 12:06:08;;;;;;;;;47.25;35.25;;;;;;;;5056037;28;51057;-44
2023/02/23 12:08:55;;;;;;;;;53.00;36.75;;;;;;;;5058054;28;51057;-43
2023/02/23 12:11:43;;;;;;;;;57.50;38.25;;;;;;;;5055137;28;51035;-44
2023/02/23 12:14:50;;;;;;;;;50.50;37.75;;;;;;;;5059115;28;51160;-46
2023/02/23 12:17:46;;;;;;;;;43.50;32.00;;;;;;;;5058671;28;51031;-44
2023/02/23 12:20:34;;;;;;;;;50.25;35.75;;;;;;;;5057508;28;51365;-45
2023/02/23 12:23:20;;;;;;;;;47.50;36.50;;;;;;;;5066283;28;51237;-44
2023/02/23 12:26:10;;;;;;;;;54.75;38.00;;;;;;;;5076430;28;51071;-47
2023/02/23 12:29:13;;;;;;;;;51.75;35.00;;;;;;;;5065816;28;51195;-43
2023/02/23 12:32:04;;;;;;;;;51.75;36.25;;;;;;;;5080712;27;51157;-43
2023/02/23 12:34:51;;;;;;;;;51.25;35.75;;;;;;;;5080349;27;51421;-45
2023/02/23 12:37:44;;;;;;;;;47.75;33.75;;;;;;;;5079096;27;51159;-42
2023/02/23 12:40:31;;;;;;;;;53.00;37.75;;;;;;;;5083050;27;51244;-46
2023/02/23 12:43:17;;;;;;;;;48.25;34.25;;;;;;;;5080057;27;51069;-45
2023/02/23 12:46:01;;;;;;;;;54.25;37.25;;;;;;;;5082775;27;51430;-46
2023/02/23 12:48:48;;;;;;;;;56.75;38.25;;;;;;;;5080395;27;51659;-46
2023/02/23 12:51:43;;;;;;;;;45.00;31.50;;;;;;;;5082551;27;51022;-43
2023/02/23 12:54:29;;;;;;;;;49.25;39.00;;;;;;;;5082328;27;51111;-45
2023/02/23 12:57:13;;;;;;;;;51.50;34.00;;;;;;;;5077188;27;51083;-47
2023/02/23 13:00:01;;;;;;;;;53.75;38.75;;;;;;;;5082121;27;51179;-43
2023/02/23 13:02:52;;;;;;;;;56.00;38.00;;;;;;;;5082274;27;51152;-45
2023/02/23 13:05:40;;;;;;;;;56.50;38.25;;;;;;;;5081248;27;51440;-44
2023/02/23 13:08:27;;;;;;;;;54.25;36.50;;;;;;;;5071730;27;51082;-42
2023/02/23 13:11:25;;;;;;;;;51.50;37.75;;;;;;;;5082417;27;51351;-43
2023/02/23 13:14:13;;;;;;;;;50.25;32.25;;;;;;;;5080918;27;51176;-46
2023/02/23 13:17:18;;;;;;;;;53.00;37.25;;;;;;;;5070621;27;51704;-43
2023/02/23 13:20:02;;;;;;;;;56.50;35.00;;;;;;;;5068559;27;51185;-43
2023/02/23 13:22:50;;;;;;;;;51.50;35.25;;;;;;;;5081343;27;51039;-45
2023/02/23 13:26:10;;;;;;;;;46.25;36.00;;;;;;;;5007166;28;51508;-46
2023/02/23 13:29:02;;;;;;;;;49.00;36.75;;;;;;;;5006758;28;51539;-46
2023/02/23 13:31:46;;;;;;;;;46.25;35.50;;;;;;;;5000405;28;51489;-45
2023/02/23 13:34:52;;;;;;;;;53.50;36.75;;;;;;;;4960190;28;51024;-42
2023/02/23 13:37:39;;;;;;;;;49.50;35.00;;;;;;;;4958469;28;51327;-44
2023/02/23 13:40:35;;;;;;;;;46.00;34.25;;;;;;;;4959069;28;51205;-43
2023/02/23 13:43:23;;;;;;;;;46.50;34.00;;;;;;;;4959212;28;51573;-44
2023/02/23 13:46:07;;;;;;;;;52.50;37.00;;;;;;;;4959508;28;51211;-43
2023/02/23 13:49:00;;;;;;;;;46.50;31.25;;;;;;;;4943228;28;51161;-45
2023/02/23 13:51:49;;;;;;;;;48.50;34.75;;;;;;;;4957721;28;51577;-47
2023/02/23 13:54:33;;;;;;;;;56.25;39.25;;;;;;;;4959709;28;51112;-43
2023/02/23 13:57:21;;;;;;;;;49.50;35.25;;;;;;;;4955409;28;51221;-44
2023/02/23 14:00:14;;;;;;;;;56.75;37.50;;;;;;;;4944363;28;51120;-45
2023/02/23 14:03:03;;;;;;;;;51.50;36.00;;;;;;;;4985449;28;51204;-44
2023/02/23 14:05:51;;;;;;;;;48.25;30.75;;;;;;;;5033655;27;51109;-44
2023/02/23 14:08:55;;;;;;;;;49.25;35.75;;;;;;;;5026145;28;51674;-44
2023/02/23 14:11:39;;;;;;;;;49.50;35.25;;;;;;;;5035572;28;51064;-46
2023/02/23 14:14:26;;;;;;;;;50.25;36.25;;;;;;;;5015195;28;51277;-49
2023/02/23 14:17:13;;;;;;;;;55.75;38.50;;;;;;;;5017910;28;51552;-51
2023/02/23 14:20:09;;;;;;;;;52.00;36.00;;;;;;;;5015957;28;51458;-50
2023/02/23 14:23:12;;;;;;;;;53.75;36.00;;;;;;;;5035720;28;51192;-53
2023/02/23 14:26:14;;;;;;;;;49.75;35.50;;;;;;;;5020813;28;51188;-55
2023/02/23 14:29:16;;;;;;;;;50.25;35.50;;;;;;;;5017784;28;51229;-51
2023/02/23 14:32:12;;;;;;;;;47.75;34.25;;;;;;;;5018132;28;51651;-53
2023/02/23 14:35:00;;;;;;;;;48.75;35.25;;;;;;;;5018121;28;51125;-50
2023/02/23 14:37:54;;;;;;;;;54.75;35.00;;;;;;;;5015403;28;51132;-56
2023/02/23 14:40:40;;;;;;;;;48.50;29.25;;;;;;;;5017809;28;51046;-52
2023/02/23 14:43:42;;;;;;;;;47.50;33.25;;;;;;;;5018402;27;51385;-56
2023/02/23 14:46:27;;;;;;;;;47.25;33.50;;;;;;;;5067773;27;52136;-55
2023/02/23 14:49:17;;;;;;;;;48.50;37.00;;;;;;;;5078194;27;51119;-51
2023/02/23 14:52:06;;;;;;;;;53.50;36.00;;;;;;;;5080955;27;51064;-54
2023/02/23 14:54:51;;;;;;;;;46.00;31.50;;;;;;;;5080003;27;51516;-56
2023/02/23 14:57:36;;;;;;;;;49.00;36.00;;;;;;;;5077796;27;51072;-50
2023/02/23 15:00:21;;;;;;;;;47.25;33.50;;;;;;;;5078656;27;52327;-53
2023/02/23 15:03:15;;;;;;;;;51.75;37.25;;;;;;;;5080114;27;51301;-50
2023/02/23 15:06:00;;;;;;;;;46.00;36.00;;;;;;;;5080607;27;51043;-54
2023/02/23 15:08:44;;;;;;;;;50.25;35.75;;;;;;;;5074411;27;51121;-54
2023/02/23 15:11:30;;;;;;;;;49.00;35.00;;;;;;;;5077355;27;51053;-51
2023/02/23 15:14:15;;;;;;;;;50.50;35.50;;;;;;;;5079828;27;51174;-50
2023/02/23 15:16:59;;;;;;;;;49.25;35.00;;;;;;;;5072536;27;51145;-54
2023/02/23 15:19:44;;;;;;;;;47.75;36.25;;;;;;;;5076559;27;51545;-52
2023/02/23 15:22:36;;;;;;;;;47.25;34.75;;;;;;;;5078303;27;51180;-54
2023/02/23 15:25:22;;;;;;;;;48.75;34.25;;;;;;;;5100635;27;51137;-55
2023/02/23 15:28:10;;;;;;;;;50.00;35.50;;;;;;;;5100095;27;51199;-55
2023/02/23 15:30:56;;;;;;;;;50.50;33.50;;;;;;;;5092023;27;51627;-52
2023/02/23 15:33:41;;;;;;;;;49.50;34.50;;;;;;;;5071664;27;51461;-54
2023/02/23 15:36:28;;;;;;;;;49.50;32.50;;;;;;;;5079662;27;51424;-54
2023/02/23 15:39:15;;;;;;;;;53.00;36.25;;;;;;;;5079452;27;51490;-55
2023/02/23 15:42:00;;;;;;;;;54.50;32.25;;;;;;;;5075055;27;51217;-52
2023/02/23 15:44:45;;;;;;;;;50.50;35.25;;;;;;;;5070529;27;51447;-49
2023/02/23 15:47:33;;;;;;;;;48.50;34.50;;;;;;;;5071571;27;51053;-53
2023/02/23 15:50:18;;;;;;;;;42.25;31.50;;;;;;;;5068587;27;51571;-55
2023/02/23 15:53:18;;;;;;;;;49.00;36.75;;;;;;;;5078093;27;51184;-56
2023/02/23 15:56:19;;;;;;;;;55.00;37.00;;;;;;;;5079883;27;51163;-52
2023/02/23 15:59:11;;;;;;;;;52.25;33.00;;;;;;;;5069272;27;51250;-51
2023/02/23 16:01:57;;;;;;;;;47.00;35.50;;;;;;;;5072081;27;51135;-52
2023/02/23 16:04:43;;;;;;;;;53.75;36.00;;;;;;;;5076559;27;51094;-56
2023/02/23 16:07:35;;;;;;;;;43.75;34.00;;;;;;;;5079772;27;51055;-53
2023/02/23 16:10:39;;;;;;;;;49.50;33.75;;;;;;;;5067954;27;51885;-54
2023/02/23 16:13:23;;;;;;;;;51.00;36.00;;;;;;;;5083591;27;51541;-51
2023/02/23 16:16:09;;;;;;;;;50.75;32.50;;;;;;;;5083474;27;51010;-52
2023/02/23 16:19:00;;;;;;;;;55.75;38.00;;;;;;;;5074664;27;51085;-49
2023/02/23 16:21:55;;;;;;;;;50.25;35.50;;;;;;;;5083797;27;51166;-49
2023/02/23 16:24:39;;;;;;;;;53.00;36.75;;;;;;;;5063031;28;51209;-50
2023/02/23 16:27:24;;;;;;;;;55.25;37.00;;;;;;;;5046943;28;51715;-50
2023/02/23 16:30:22;;;;;;;;;51.75;36.25;;;;;;;;5042433;28;51179;-51
2023/02/23 16:33:21;;;;;;;;;47.00;33.00;;;;;;;;5043125;28;50998;-53
2023/02/23 16:36:12;;;;;;;;;51.75;36.00;;;;;;;;5061662;28;51534;-50
2023/02/23 16:38:58;;;;;;;;;55.75;35.00;;;;;;;;5047494;28;51117;-49
2023/02/23 16:41:46;;;;;;;;;46.00;34.75;;;;;;;;5042849;28;51167;-56
2023/02/23 16:44:30;;;;;;;;;47.00;37.25;;;;;;;;5040660;28;51161;-52
2023/02/23 16:47:24;;;;;;;;;42.25;31.50;;;;;;;;5044681;28;51185;-51
2023/02/23 16:50:16;;;;;;;;;56.00;37.50;;;;;;;;5043642;28;51373;-53
2023/02/23 16:53:02;;;;;;;;;46.50;29.00;;;;;;;;5060218;28;51031;-57
2023/02/23 16:55:50;;;;;;;;;52.50;35.25;;;;;;;;5062336;28;51123;-56
2023/02/23 16:58:35;;;;;;;;;54.25;39.25;;;;;;;;5053827;28;51142;-56
2023/02/23 17:01:19;;;;;;;;;52.25;37.00;;;;;;;;5051453;28;51448;-54
2023/02/23 17:04:05;;;;;;;;;47.25;37.50;;;;;;;;5044060;28;51172;-49
2023/02/23 17:06:56;;;;;;;;;55.25;39.00;;;;;;;;5042274;28;51217;-56
2023/02/23 17:09:41;;;;;;;;;38.25;31.00;;;;;;;;5041997;28;51166;-56
2023/02/23 17:12:25;;;;;;;;;60.50;42.25;;;;;;;;5042143;28;51077;-54
2023/02/23 17:15:14;;;;;;;;;59.00;37.75;;;;;;;;5042091;28;51522;-58
2023/02/23 17:17:59;;;;;;;;;52.25;37.25;;;;;;;;5040809;28;51141;-56
2023/02/23 17:20:43;;;;;;;;;49.50;34.50;;;;;;;;5061061;28;51151;-53
2023/02/23 17:23:37;;;;;;;;;48.25;32.00;;;;;;;;5071476;27;51038;-58
2023/02/23 17:26:23;;;;;;;;;56.75;37.50;;;;;;;;5081144;27;51581;-54
2023/02/23 17:29:07;;;;;;;;;48.50;36.00;;;;;;;;5082167;27;51145;-50
2023/02/23 17:31:52;;;;;;;;;61.25;38.00;;;;;;;;5082231;27;51037;-56
2023/02/23 17:34:37;;;;;;;;;45.50;28.50;;;;;;;;5077613;27;51132;-53